Time;durP1;ratioP1;P1;durP2;ratioP2;P2;SDS_P1;SDS_P2;PMS_P1;PMS_P2;Temp;Humidity;BMP_temperature;BMP_pressure;BME280_temperature;BME280_humidity;BME280_pressure;Samples;Min_cycle;Max_cycle;Signal;HPM_P1;HPM_P2
2021/10/08 00:01:22;;;;;;;77.50;28.85;;;;;;;12.55;78.83;103168.06;4882306;29;20502;-66
2021/10/08 00:03:47;;;;;;;74.55;27.73;;;;;;;12.52;78.90;103170.56;4887379;28;20516;-67
2021/10/08 00:06:14;;;;;;;75.47;28.30;;;;;;;12.50;78.92;103177.47;4876207;29;20404;-68
2021/10/08 00:08:41;;;;;;;79.75;28.38;;;;;;;12.45;78.90;103171.13;4870678;29;20115;-67
2021/10/08 00:11:06;;;;;;;80.95;28.88;;;;;;;12.41;79.07;103170.09;4891394;28;20536;-68
2021/10/08 00:13:32;;;;;;;78.38;27.98;;;;;;;12.41;78.69;103167.50;4869398;29;20048;-69
2021/10/08 00:15:58;;;;;;;79.25;28.15;;;;;;;12.37;78.70;103167.31;4864383;29;20560;-67
2021/10/08 00:18:23;;;;;;;76.18;27.30;;;;;;;12.29;79.07;103169.59;4860090;29;20908;-67
2021/10/08 00:20:48;;;;;;;82.22;28.42;;;;;;;12.29;79.22;103171.31;4886884;29;20420;-67
2021/10/08 00:23:14;;;;;;;78.72;28.08;;;;;;;12.21;79.45;103176.19;4866892;28;20131;-67
2021/10/08 00:25:39;;;;;;;79.32;28.52;;;;;;;12.22;78.81;103167.53;4871206;29;20130;-67
2021/10/08 00:28:06;;;;;;;90.03;29.27;;;;;;;12.04;79.53;103172.84;4890617;28;20043;-67
2021/10/08 00:30:31;;;;;;;80.93;28.13;;;;;;;12.14;78.99;103172.41;4859400;28;20712;-67
2021/10/08 00:32:57;;;;;;;83.18;28.42;;;;;;;12.10;79.33;103175.75;4886127;28;20130;-67
2021/10/08 00:35:22;;;;;;;88.55;29.33;;;;;;;12.08;79.36;103176.47;4863870;29;20284;-67
2021/10/08 00:37:51;;;;;;;88.68;29.70;;;;;;;11.85;79.92;103183.31;4851749;29;20478;-67
2021/10/08 00:40:17;;;;;;;102.90;29.95;;;;;;;11.95;79.74;103180.31;4846636;29;20950;-64
2021/10/08 00:42:49;;;;;;;115.90;29.55;;;;;;;11.95;79.74;103177.69;4849292;29;20704;-66
2021/10/08 00:45:16;;;;;;;105.53;29.05;;;;;;;11.91;79.82;103180.97;4893421;28;20089;-67
2021/10/08 00:48:08;;;;;;;123.90;29.73;;;;;;;11.89;79.63;103189.59;4882830;29;20044;-67
2021/10/08 00:50:39;;;;;;;98.68;27.95;;;;;;;11.80;79.79;103184.84;4856126;29;20321;-66
2021/10/08 00:53:05;;;;;;;99.05;27.45;;;;;;;11.79;79.51;103188.28;4869142;29;20052;-66
2021/10/08 00:55:35;;;;;;;112.38;27.77;;;;;;;11.64;79.62;103191.06;4869573;29;20066;-67
2021/10/08 00:58:01;;;;;;;99.82;27.90;;;;;;;11.67;79.16;103188.56;4856652;29;20922;-66
2021/10/08 01:00:27;;;;;;;118.75;27.15;;;;;;;11.66;79.15;103186.78;4855815;29;20521;-66
2021/10/08 01:02:52;;;;;;;96.20;27.02;;;;;;;11.68;79.32;103181.63;4876071;29;20047;-66
2021/10/08 01:05:18;;;;;;;92.63;27.52;;;;;;;11.71;79.26;103180.03;4877620;29;20052;-66
2021/10/08 01:07:43;;;;;;;96.78;27.55;;;;;;;11.67;79.34;103178.13;4883737;28;20111;-66
2021/10/08 01:10:08;;;;;;;108.10;27.35;;;;;;;11.51;79.75;103175.66;4868668;29;20103;-66
2021/10/08 01:12:34;;;;;;;93.72;28.02;;;;;;;11.66;79.10;103178.06;4854778;28;20350;-67
2021/10/08 01:15:00;;;;;;;103.07;27.20;;;;;;;11.63;79.29;103188.38;4871671;29;20051;-66
2021/10/08 01:17:26;;;;;;;96.20;26.90;;;;;;;11.65;79.06;103187.59;4877260;29;20158;-67
2021/10/08 01:19:52;;;;;;;150.45;27.45;;;;;;;11.58;79.05;103185.56;4875567;29;20043;-69
2021/10/08 01:22:19;;;;;;;104.70;28.63;;;;;;;11.68;78.71;103186.88;4873365;29;20545;-67
2021/10/08 01:25:08;;;;;;;101.57;26.73;;;;;;;11.64;79.24;103196.28;4869032;29;21398;-66
2021/10/08 01:27:36;;;;;;;112.22;25.92;;;;;;;11.60;78.91;103189.13;4864783;29;20047;-66
2021/10/08 01:30:07;;;;;;;105.35;25.58;;;;;;;11.52;79.07;103185.28;4847023;29;20519;-68
2021/10/08 01:32:33;;;;;;;114.47;26.33;;;;;;;11.52;78.69;103187.91;4864506;28;20775;-66
2021/10/08 01:34:58;;;;;;;116.35;26.85;;;;;;;11.46;78.85;103186.72;4868216;29;20031;-66
2021/10/08 01:37:45;;;;;;;116.75;26.88;;;;;;;11.46;78.93;103190.22;4875270;29;20389;-67
2021/10/08 01:40:29;;;;;;;96.18;26.48;;;;;;;11.45;78.96;103185.81;4869106;29;20048;-68
2021/10/08 01:42:56;;;;;;;119.25;27.55;;;;;;;11.47;78.74;103193.69;4887313;28;20055;-66
2021/10/08 01:45:30;;;;;;;100.57;25.67;;;;;;;11.45;78.78;103198.88;4864522;29;20036;-67
2021/10/08 01:48:03;;;;;;;107.55;28.23;;;;;;;11.39;78.88;103194.25;4872409;29;20513;-67
2021/10/08 01:50:46;;;;;;;94.07;26.35;;;;;;;11.43;78.51;103197.00;4845955;28;20047;-67
2021/10/08 01:53:18;;;;;;;99.55;26.02;;;;;;;11.40;78.85;103195.16;4876982;29;20044;-68
2021/10/08 01:55:44;;;;;;;101.05;26.23;;;;;;;11.37;78.68;103193.28;4866081;29;20135;-67
2021/10/08 01:58:17;;;;;;;107.65;28.30;;;;;;;11.36;78.61;103190.59;4876869;29;20043;-66
2021/10/08 02:00:42;;;;;;;100.78;26.75;;;;;;;11.40;78.40;103195.16;4885153;29;20062;-67
2021/10/08 02:03:07;;;;;;;104.20;27.52;;;;;;;11.35;78.69;103200.13;4868480;29;20052;-67
2021/10/08 02:05:34;;;;;;;90.72;25.80;;;;;;;11.26;78.38;103204.06;4885669;29;20044;-68
2021/10/08 02:07:59;;;;;;;109.97;28.23;;;;;;;11.18;78.77;103194.94;4888962;28;20594;-66
2021/10/08 02:10:25;;;;;;;108.22;28.08;;;;;;;11.21;78.95;103201.22;4863658;29;20421;-67
2021/10/08 02:12:53;;;;;;;110.45;27.88;;;;;;;11.21;78.79;103195.09;4861618;29;20039;-67
2021/10/08 02:15:18;;;;;;;100.30;24.73;;;;;;;11.11;78.98;103203.31;4886882;29;20146;-67
2021/10/08 02:17:44;;;;;;;98.38;24.73;;;;;;;11.09;78.79;103202.34;4873457;29;20134;-66
2021/10/08 02:20:12;;;;;;;85.78;25.70;;;;;;;11.08;78.65;103193.63;4889363;28;20146;-66
2021/10/08 02:22:37;;;;;;;91.05;24.88;;;;;;;11.06;78.57;103199.59;4881922;28;22896;-66
2021/10/08 02:25:03;;;;;;;102.18;26.77;;;;;;;11.03;78.80;103205.56;4887411;28;20635;-67
2021/10/08 02:27:29;;;;;;;111.60;26.70;;;;;;;11.03;78.75;103197.72;4870731;29;20363;-67
2021/10/08 02:29:54;;;;;;;75.45;25.70;;;;;;;11.06;78.72;103200.47;4888164;29;20108;-66
2021/10/08 02:32:19;;;;;;;90.22;25.02;;;;;;;11.01;78.51;103199.38;4879969;28;20090;-67
2021/10/08 02:34:45;;;;;;;90.47;24.50;;;;;;;10.95;78.36;103204.28;4893591;29;20111;-67
2021/10/08 02:37:10;;;;;;;85.55;25.65;;;;;;;10.93;78.67;103204.19;4845190;29;20589;-67
2021/10/08 02:39:36;;;;;;;64.28;25.52;;;;;;;10.87;78.89;103196.06;4873493;28;20262;-67
2021/10/08 02:42:02;;;;;;;76.95;25.63;;;;;;;10.89;78.82;103202.28;4865192;29;20143;-68
2021/10/08 02:44:27;;;;;;;82.53;26.45;;;;;;;10.90;78.97;103203.16;4870997;28;20051;-66
2021/10/08 02:46:53;;;;;;;87.72;27.50;;;;;;;10.92;78.76;103206.72;4869185;29;20093;-66
2021/10/08 02:49:21;;;;;;;73.43;25.70;;;;;;;10.90;78.51;103204.06;4879740;29;20444;-66
2021/10/08 02:51:48;;;;;;;86.80;26.60;;;;;;;10.92;78.82;103206.72;4842497;29;20897;-66
2021/10/08 02:54:14;;;;;;;74.82;25.83;;;;;;;10.99;78.95;103203.59;4883230;28;20616;-66
2021/10/08 02:56:41;;;;;;;93.03;25.15;;;;;;;10.93;78.54;103200.69;4863850;28;20047;-66
2021/10/08 02:59:06;;;;;;;116.38;25.38;;;;;;;10.87;78.75;103203.00;4872281;29;20048;-66
2021/10/08 03:01:31;;;;;;;93.80;24.27;;;;;;;10.63;78.79;103210.50;4853320;29;20580;-66
2021/10/08 03:04:00;;;;;;;77.65;25.60;;;;;;;10.77;78.85;103201.66;4887509;29;20400;-67
2021/10/08 03:06:25;;;;;;;77.10;25.17;;;;;;;10.85;78.91;103208.19;4878837;29;20079;-67
2021/10/08 03:08:53;;;;;;;86.18;24.75;;;;;;;10.87;78.91;103209.13;4869715;29;20139;-67
2021/10/08 03:11:18;;;;;;;79.07;24.92;;;;;;;10.83;78.72;103207.19;4890189;29;20043;-67
2021/10/08 03:13:44;;;;;;;64.90;24.20;;;;;;;10.82;78.56;103205.41;4866207;29;20485;-67
2021/10/08 03:16:09;;;;;;;68.43;24.10;;;;;;;10.80;78.45;103200.91;4873910;28;20135;-66
2021/10/08 03:18:35;;;;;;;70.07;21.80;;;;;;;10.77;78.24;103214.72;4855944;29;20047;-66
2021/10/08 03:21:00;;;;;;;69.32;21.20;;;;;;;10.74;78.04;103209.34;4872895;29;20039;-66
2021/10/08 03:23:26;;;;;;;110.22;23.48;;;;;;;10.69;78.10;103213.44;4868277;29;20083;-67
2021/10/08 03:25:51;;;;;;;74.03;21.60;;;;;;;10.64;78.06;103209.69;4887920;28;20500;-67
2021/10/08 03:28:16;;;;;;;69.13;23.67;;;;;;;10.61;78.55;103209.56;4872483;28;20091;-66
2021/10/08 03:30:42;;;;;;;86.32;23.67;;;;;;;10.63;78.96;103214.84;4884522;28;20464;-66
2021/10/08 03:33:07;;;;;;;74.68;22.45;;;;;;;10.62;78.58;103216.53;4870325;29;20556;-67
2021/10/08 03:35:32;;;;;;;76.95;21.92;;;;;;;10.61;78.47;103216.50;4867047;29;20071;-66
2021/10/08 03:38:11;;;;;;;65.15;23.42;;;;;;;10.57;78.54;103216.31;4884101;29;20040;-66
2021/10/08 03:40:37;;;;;;;67.43;22.90;;;;;;;10.56;78.96;103211.03;4860840;29;20055;-66
2021/10/08 03:43:02;;;;;;;76.85;22.73;;;;;;;10.60;78.71;103217.31;4886957;29;20051;-67
2021/10/08 03:45:32;;;;;;;70.30;24.02;;;;;;;10.57;78.70;103210.22;4880645;29;21177;-67
2021/10/08 03:50:34;;;;;;;68.60;23.05;;;;;;;10.60;78.47;103212.97;4879360;28;20122;-66
2021/10/08 03:53:01;;;;;;;73.35;23.90;;;;;;;10.61;79.01;103211.28;4850243;29;20059;-66
2021/10/08 03:55:26;;;;;;;64.43;23.05;;;;;;;10.65;78.72;103206.28;4875991;29;20056;-66
2021/10/08 03:57:52;;;;;;;94.07;23.17;;;;;;;10.62;78.72;103210.44;4863540;29;20043;-66
2021/10/08 04:00:17;;;;;;;102.57;24.63;;;;;;;10.60;78.41;103212.09;4868943;28;20055;-67
2021/10/08 04:02:43;;;;;;;94.75;24.00;;;;;;;10.60;78.60;103215.59;4849605;29;20082;-67
2021/10/08 04:05:08;;;;;;;88.35;22.88;;;;;;;10.67;79.04;103215.09;4870860;29;20129;-66
2021/10/08 04:07:34;;;;;;;103.18;23.25;;;;;;;10.70;78.88;103209.09;4857746;29;20560;-67
2021/10/08 04:09:59;;;;;;;97.38;23.73;;;;;;;10.63;78.58;103210.50;4885675;29;20356;-67
2021/10/08 04:12:25;;;;;;;129.07;23.52;;;;;;;10.51;78.79;103208.19;4844683;28;20075;-66
2021/10/08 04:14:50;;;;;;;89.50;23.85;;;;;;;10.57;78.82;103212.81;4888087;28;20434;-66
2021/10/08 04:17:15;;;;;;;77.55;23.95;;;;;;;10.63;79.09;103215.72;4847463;29;20136;-65
2021/10/08 04:19:41;;;;;;;85.43;23.25;;;;;;;10.69;78.89;103216.03;4880248;28;20036;-65
2021/10/08 04:22:06;;;;;;;77.95;25.38;;;;;;;10.74;79.08;103213.66;4885366;28;20250;-66
2021/10/08 04:24:31;;;;;;;138.40;24.48;;;;;;;10.76;78.48;103212.94;4848889;29;20252;-66
2021/10/08 04:26:57;;;;;;;93.00;23.63;;;;;;;10.71;78.18;103214.41;4884973;29;20349;-66
2021/10/08 04:29:22;;;;;;;88.15;23.23;;;;;;;10.71;78.21;103214.41;4886374;29;20043;-66
2021/10/08 04:31:48;;;;;;;119.65;22.33;;;;;;;10.69;78.29;103216.03;4885889;29;20047;-66
2021/10/08 04:34:13;;;;;;;88.90;23.65;;;;;;;10.61;78.50;103216.50;4882103;28;20043;-66
2021/10/08 04:36:40;;;;;;;97.75;22.98;;;;;;;10.59;78.50;103221.63;4868012;28;20887;-66
2021/10/08 04:39:06;;;;;;;98.95;21.98;;;;;;;10.59;78.19;103216.41;4882726;29;20044;-66
2021/10/08 04:41:31;;;;;;;120.43;22.17;;;;;;;10.53;78.08;103224.81;4888262;29;20392;-66
2021/10/08 04:43:57;;;;;;;116.82;23.38;;;;;;;10.47;78.56;103219.28;4858087;29;20043;-67
2021/10/08 04:46:22;;;;;;;164.35;21.83;;;;;;;10.42;78.12;103222.50;4859400;29;20441;-67
2021/10/08 04:48:48;;;;;;;104.88;21.55;;;;;;;10.41;78.30;103224.19;4861596;29;20032;-67
2021/10/08 04:51:13;;;;;;;117.53;22.00;;;;;;;10.42;78.39;103223.38;4845866;29;20047;-66
2021/10/08 04:53:38;;;;;;;71.20;22.85;;;;;;;10.41;78.41;103232.03;4895013;29;20147;-65
2021/10/08 04:56:04;;;;;;;80.13;24.40;;;;;;;10.45;78.91;103225.22;4852419;29;20040;-66
2021/10/08 04:58:29;;;;;;;88.05;22.90;;;;;;;10.47;78.92;103224.50;4864521;29;20043;-66
2021/10/08 05:00:55;;;;;;;95.35;23.08;;;;;;;10.47;78.45;103229.72;4869718;29;20039;-66
2021/10/08 05:03:21;;;;;;;87.95;23.70;;;;;;;10.49;78.72;103222.00;4853366;29;20456;-67
2021/10/08 05:05:50;;;;;;;92.85;23.85;;;;;;;10.51;79.18;103223.84;4889922;29;20048;-66
2021/10/08 05:08:16;;;;;;;90.50;21.83;;;;;;;10.56;78.73;103224.06;4864447;29;20110;-64
2021/10/08 05:10:42;;;;;;;122.60;22.35;;;;;;;10.52;78.44;103229.94;4870182;29;20051;-67
2021/10/08 05:13:08;;;;;;;54.17;21.33;;;;;;;10.51;78.22;103223.84;4887214;29;20236;-65
2021/10/08 05:15:33;;;;;;;138.93;21.52;;;;;;;10.47;78.11;103229.72;4871092;29;20047;-66
2021/10/08 05:17:59;;;;;;;131.95;22.02;;;;;;;10.48;78.02;103235.84;4848331;29;20050;-66
2021/10/08 05:20:24;;;;;;;127.88;21.95;;;;;;;10.48;78.13;103234.13;4870985;28;20540;-67
2021/10/08 05:22:51;;;;;;;138.40;21.92;;;;;;;10.50;78.71;103239.41;4877896;29;20925;-66
2021/10/08 05:25:20;;;;;;;106.13;23.13;;;;;;;10.51;78.46;103234.25;4862764;29;20984;-67
2021/10/08 05:27:46;;;;;;;302.60;23.30;;;;;;;10.51;78.40;103239.47;4874732;29;20044;-67
2021/10/08 05:30:15;;;;;;;286.23;22.08;;;;;;;10.39;77.89;103245.78;4881576;28;20091;-66
2021/10/08 05:32:41;;;;;;;200.02;21.50;;;;;;;10.38;78.07;103239.66;4881409;29;20341;-66
2021/10/08 05:35:10;;;;;;;167.35;21.58;;;;;;;10.40;78.32;103243.25;4870975;29;20756;-65
2021/10/08 05:37:36;;;;;;;203.27;22.90;;;;;;;10.42;78.99;103241.63;4865035;29;20039;-66
2021/10/08 05:40:03;;;;;;;88.68;22.60;;;;;;;10.41;78.44;103238.94;4868744;29;20438;-66
2021/10/08 05:42:29;;;;;;;81.15;21.10;;;;;;;10.46;78.37;103242.69;4847271;29;20040;-66
2021/10/08 05:44:54;;;;;;;144.00;22.05;;;;;;;10.47;78.40;103249.69;4851609;29;20051;-66
2021/10/08 05:47:20;;;;;;;113.07;21.08;;;;;;;10.51;78.01;103247.31;4869650;29;20036;-66
2021/10/08 05:49:52;;;;;;;118.55;21.75;;;;;;;10.50;78.07;103244.63;4865017;29;20095;-66
2021/10/08 05:52:19;;;;;;;78.65;20.67;;;;;;;10.50;77.87;103247.22;4866836;29;20397;-66
2021/10/08 05:54:45;;;;;;;95.40;22.25;;;;;;;10.52;78.20;103246.50;4874603;29;20039;-66
2021/10/08 05:57:10;;;;;;;132.32;20.80;;;;;;;10.51;78.48;103255.13;4891821;29;20741;-66
2021/10/08 05:59:36;;;;;;;198.00;20.98;;;;;;;10.52;78.32;103249.09;4883230;29;20568;-65
2021/10/08 06:02:02;;;;;;;159.50;20.10;;;;;;;10.56;78.27;103248.44;4870880;29;20051;-66
2021/10/08 06:04:27;;;;;;;254.48;22.52;;;;;;;10.45;77.74;103247.00;4863268;28;20529;-67
2021/10/08 06:06:53;;;;;;;198.55;19.60;;;;;;;10.45;77.80;103249.59;4856161;29;20549;-67
2021/10/08 06:09:20;;;;;;;101.45;19.55;;;;;;;10.41;77.72;103250.28;4855348;29;20048;-66
2021/10/08 06:11:53;;;;;;;236.18;20.42;;;;;;;10.29;77.46;103254.84;4875145;29;20086;-66
2021/10/08 06:14:19;;;;;;;188.40;19.60;;;;;;;10.28;78.38;103258.25;4842038;28;20040;-67
2021/10/08 06:16:46;;;;;;;138.55;18.90;;;;;;;10.35;77.97;103254.28;4889987;29;20063;-66
2021/10/08 06:19:11;;;;;;;87.43;19.90;;;;;;;10.35;78.54;103256.88;4864281;29;20532;-66
2021/10/08 06:21:40;;;;;;;103.50;18.52;;;;;;;10.40;78.06;103258.91;4887311;28;20039;-66
2021/10/08 06:24:07;;;;;;;127.85;17.48;;;;;;;10.37;78.04;103263.09;4867573;29;20051;-67
2021/10/08 06:26:33;;;;;;;87.32;17.90;;;;;;;10.37;77.93;103261.34;4865304;28;20536;-67
2021/10/08 06:28:59;;;;;;;61.83;17.52;;;;;;;10.46;78.05;103268.75;4882635;29;20455;-67
2021/10/08 06:31:25;;;;;;;55.38;17.52;;;;;;;10.43;77.90;103273.84;4876066;29;20376;-66
2021/10/08 06:33:50;;;;;;;143.13;18.75;;;;;;;10.42;77.86;103275.53;4867480;29;20139;-67
2021/10/08 06:36:16;;;;;;;108.00;17.48;;;;;;;10.50;77.54;103274.19;4862525;29;20040;-66
2021/10/08 06:38:48;;;;;;;96.50;17.88;;;;;;;10.44;77.33;103273.88;4881239;28;20166;-67
2021/10/08 06:41:16;;;;;;;129.25;17.73;;;;;;;10.46;77.78;103279.19;4885945;29;20157;-66
2021/10/08 06:43:43;;;;;;;224.68;18.92;;;;;;;10.41;77.55;103285.88;4879477;28;20055;-67
2021/10/08 06:46:09;;;;;;;70.05;17.52;;;;;;;10.48;77.59;103283.69;4854681;29;20040;-66
2021/10/08 06:48:34;;;;;;;118.18;17.20;;;;;;;10.49;77.50;103288.06;4883828;29;20051;-66
2021/10/08 06:51:00;;;;;;;157.70;18.20;;;;;;;10.52;77.49;103285.63;4871559;29;20599;-67
2021/10/08 06:53:25;;;;;;;79.68;16.98;;;;;;;10.59;77.11;103286.84;4883653;29;20572;-68
2021/10/08 06:55:51;;;;;;;59.60;18.00;;;;;;;10.64;77.23;103289.66;4886425;29;20039;-67
2021/10/08 06:58:16;;;;;;;136.02;18.15;;;;;;;10.70;77.22;103288.28;4877379;29;20430;-64
2021/10/08 07:00:42;;;;;;;166.80;18.60;;;;;;;10.65;77.33;103287.16;4888595;29;20047;-68
2021/10/08 07:03:07;;;;;;;128.93;18.35;;;;;;;10.70;77.04;103297.81;4880335;29;20490;-69
2021/10/08 07:05:33;;;;;;;160.05;19.70;;;;;;;10.75;76.83;103294.63;4871324;29;20725;-66
2021/10/08 07:07:59;;;;;;;130.68;17.50;;;;;;;10.76;76.90;103303.34;4862732;29;20087;-66
2021/10/08 07:10:24;;;;;;;104.45;17.60;;;;;;;10.78;76.90;103299.13;4879561;29;20040;-67
2021/10/08 07:12:50;;;;;;;67.10;17.38;;;;;;;10.84;76.65;103308.16;4884757;28;20063;-67
2021/10/08 07:15:17;;;;;;;135.32;18.70;;;;;;;10.88;76.48;103306.56;4888405;28;20103;-68
2021/10/08 07:17:45;;;;;;;139.02;17.90;;;;;;;10.99;76.18;103308.00;4894588;28;20043;-67
2021/10/08 07:20:13;;;;;;;178.07;18.50;;;;;;;10.87;76.60;103300.47;4878767;29;20048;-68
2021/10/08 07:22:39;;;;;;;61.42;18.15;;;;;;;11.08;76.35;103310.19;4866885;29;20451;-66
2021/10/08 07:25:10;;;;;;;161.38;18.20;;;;;;;11.18;76.31;103312.44;4871998;29;20047;-67
2021/10/08 07:27:37;;;;;;;59.15;15.73;;;;;;;11.24;75.60;103310.13;4887721;28;20130;-66
2021/10/08 07:30:04;;;;;;;286.15;18.40;;;;;;;11.08;74.94;103318.03;4874827;29;20063;-66
2021/10/08 07:32:30;;;;;;;83.13;17.35;;;;;;;11.18;75.45;103315.06;4874327;28;20062;-66
2021/10/08 07:34:56;;;;;;;45.85;17.52;;;;;;;11.31;75.31;103318.34;4889423;29;20036;-66
2021/10/08 07:37:22;;;;;;;116.10;17.35;;;;;;;11.29;74.91;103311.25;4860310;29;20056;-66
2021/10/08 07:39:47;;;;;;;132.95;17.00;;;;;;;11.31;75.54;103317.44;4885750;28;20504;-67
2021/10/08 07:42:14;;;;;;;88.22;18.63;;;;;;;11.30;75.44;103310.44;4884963;29;20103;-67
2021/10/08 07:44:40;;;;;;;79.32;17.17;;;;;;;11.40;75.32;103318.78;4879665;28;20039;-67
2021/10/08 07:47:06;;;;;;;51.33;17.17;;;;;;;11.50;75.21;103319.25;4894192;28;20044;-67
2021/10/08 07:49:31;;;;;;;136.23;17.98;;;;;;;11.52;75.66;103323.75;4885874;28;20569;-67
2021/10/08 07:51:57;;;;;;;46.47;17.50;;;;;;;11.64;74.95;103324.31;4870535;29;20027;-67
2021/10/08 07:54:23;;;;;;;69.70;17.77;;;;;;;11.68;74.92;103326.25;4855915;28;20464;-67
2021/10/08 07:56:49;;;;;;;115.20;17.55;;;;;;;11.74;74.72;103326.56;4887461;29;20069;-67
2021/10/08 07:59:19;;;;;;;67.75;17.80;;;;;;;11.88;75.34;103316.78;4883617;29;20040;-68
2021/10/08 08:01:46;;;;;;;65.00;16.48;;;;;;;11.88;73.78;103328.94;4884603;29;20051;-67
2021/10/08 08:04:13;;;;;;;93.55;16.75;;;;;;;11.88;73.58;103326.34;4891151;28;20106;-65
2021/10/08 08:06:39;;;;;;;101.35;16.45;;;;;;;11.91;73.17;103331.69;4876984;29;20044;-65
2021/10/08 08:09:04;;;;;;;46.92;14.80;;;;;;;12.02;73.21;103322.63;4888040;28;21933;-67
2021/10/08 08:11:30;;;;;;;31.13;15.05;;;;;;;12.15;73.49;103325.88;4888643;28;20118;-67
2021/10/08 08:13:55;;;;;;;108.28;16.30;;;;;;;12.13;73.82;103329.28;4883052;28;20035;-66
2021/10/08 08:16:21;;;;;;;90.35;15.50;;;;;;;12.22;72.96;103326.16;4878739;28;20078;-66
2021/10/08 08:18:48;;;;;;;63.15;15.90;;;;;;;12.23;72.02;103328.84;4881751;28;20464;-67
2021/10/08 08:21:14;;;;;;;32.65;15.10;;;;;;;12.41;71.88;103331.41;4870983;29;20063;-67
2021/10/08 08:23:39;;;;;;;45.95;14.95;;;;;;;12.36;72.43;103327.69;4884900;28;20059;-66
2021/10/08 08:26:04;;;;;;;59.42;16.00;;;;;;;12.41;72.88;103329.69;4886514;28;20541;-67
2021/10/08 08:28:30;;;;;;;56.08;16.60;;;;;;;12.30;73.19;103330.94;4869185;29;20048;-67
2021/10/08 08:30:55;;;;;;;128.70;15.95;;;;;;;12.17;72.09;103332.09;4885390;29;20047;-66
2021/10/08 08:33:21;;;;;;;47.65;16.00;;;;;;;12.13;72.72;103329.28;4885808;28;20647;-67
2021/10/08 08:35:47;;;;;;;119.82;15.55;;;;;;;12.21;72.05;103333.09;4879409;29;20047;-65
2021/10/08 08:38:12;;;;;;;71.50;16.40;;;;;;;12.31;73.15;103334.44;4871026;29;20512;-66
2021/10/08 08:40:38;;;;;;;54.40;15.50;;;;;;;12.37;72.33;103335.63;4872392;28;20039;-66
2021/10/08 08:43:04;;;;;;;48.42;15.18;;;;;;;12.46;72.24;103337.72;4862076;29;20426;-66
2021/10/08 08:45:32;;;;;;;99.25;15.68;;;;;;;12.54;72.41;103339.88;4877569;29;20059;-67
2021/10/08 08:48:06;;;;;;;101.50;15.73;;;;;;;12.49;70.89;103341.41;4876920;28;20042;-66
2021/10/08 08:50:35;;;;;;;64.45;15.55;;;;;;;12.52;70.99;103340.63;4881860;28;20524;-66
2021/10/08 08:53:00;;;;;;;42.60;16.50;;;;;;;12.56;70.68;103342.56;4876914;29;20052;-67
2021/10/08 08:55:26;;;;;;;39.85;17.45;;;;;;;12.69;72.01;103349.22;4868860;29;20959;-65
2021/10/08 08:57:51;;;;;;;36.58;17.15;;;;;;;12.81;71.57;103342.78;4882150;28;20060;-67
2021/10/08 09:00:19;;;;;;;33.92;17.95;;;;;;;12.86;71.55;103349.16;4879579;28;20036;-66
2021/10/08 09:03:10;;;;;;;65.60;17.63;;;;;;;12.68;71.86;103342.22;4878102;28;20060;-66
2021/10/08 09:05:37;;;;;;;50.33;15.63;;;;;;;12.97;71.09;103345.25;4883660;29;20044;-66
2021/10/08 09:08:07;;;;;;;57.55;16.10;;;;;;;13.05;70.47;103339.47;4892313;28;20427;-66
2021/10/08 09:10:37;;;;;;;34.50;16.95;;;;;;;13.35;71.70;103344.28;4874812;28;20166;-66
2021/10/08 09:13:03;;;;;;;32.17;17.15;;;;;;;13.43;69.36;103338.44;4877894;29;20087;-67
2021/10/08 09:15:54;;;;;;;35.47;17.13;;;;;;;13.58;70.18;103333.84;4869624;29;20138;-66
2021/10/08 09:18:22;;;;;;;41.50;19.75;;;;;;;13.55;70.78;103336.31;4849987;28;20549;-68
2021/10/08 09:21:12;;;;;;;38.47;19.98;;;;;;;13.67;70.24;103344.66;4880586;28;20134;-66
2021/10/08 09:23:48;;;;;;;39.13;18.77;;;;;;;13.80;67.82;103339.09;4867660;29;20048;-67
2021/10/08 09:26:16;;;;;;;38.67;19.30;;;;;;;13.91;68.04;103336.88;4864098;29;20048;-67
2021/10/08 09:28:54;;;;;;;34.42;19.10;;;;;;;13.99;68.55;103330.22;4890764;28;20047;-66
2021/10/08 09:31:25;;;;;;;37.85;20.45;;;;;;;14.14;69.72;103338.69;4883531;28;20514;-67
2021/10/08 09:34:08;;;;;;;34.13;19.05;;;;;;;14.44;67.98;103337.22;4884242;28;20043;-66
2021/10/08 09:36:37;;;;;;;41.83;20.83;;;;;;;14.16;67.48;103329.13;4876149;29;20219;-66
2021/10/08 09:39:16;;;;;;;38.15;21.38;;;;;;;14.32;68.63;103326.25;4884406;29;20484;-67
2021/10/08 09:41:45;;;;;;;40.20;22.20;;;;;;;14.23;68.08;103328.50;4892155;29;20059;-66
2021/10/08 09:44:12;;;;;;;44.88;22.30;;;;;;;14.14;69.66;103331.69;4866613;29;20083;-66
2021/10/08 09:46:38;;;;;;;41.72;22.17;;;;;;;14.24;69.26;103330.31;4885999;29;20059;-66
2021/10/08 09:49:03;;;;;;;40.92;22.58;;;;;;;14.37;68.88;103326.41;4864646;29;20517;-67
2021/10/08 09:51:30;;;;;;;38.90;20.98;;;;;;;14.41;68.08;103331.84;4872866;29;20056;-67
2021/10/08 09:53:55;;;;;;;41.60;22.10;;;;;;;14.31;69.08;103327.06;4891852;29;20050;-66
2021/10/08 09:56:31;;;;;;;38.75;20.95;;;;;;;14.39;68.45;103322.16;4873427;28;20043;-66
2021/10/08 09:58:56;;;;;;;49.30;23.55;;;;;;;14.32;68.94;103330.59;4877618;29;20047;-66
2021/10/08 10:01:27;;;;;;;47.50;22.98;;;;;;;14.56;68.13;103335.03;4879850;29;20379;-68
2021/10/08 10:03:53;;;;;;;42.80;23.15;;;;;;;14.66;68.44;103338.88;4894446;29;20078;-65
2021/10/08 10:06:20;;;;;;;44.28;23.00;;;;;;;14.61;67.83;103337.81;4883608;28;20572;-67
2021/10/08 10:08:45;;;;;;;46.40;23.15;;;;;;;14.64;68.12;103323.94;4889056;28;20066;-67
2021/10/08 10:11:11;;;;;;;48.00;24.13;;;;;;;14.75;67.29;103335.69;4881225;29;20565;-66
2021/10/08 10:13:40;;;;;;;48.17;22.67;;;;;;;14.52;67.59;103333.13;4885999;29;20044;-67
2021/10/08 10:16:06;;;;;;;51.58;24.23;;;;;;;14.68;68.23;103334.59;4864888;29;20076;-67
2021/10/08 10:18:31;;;;;;;46.15;23.83;;;;;;;14.72;68.67;103330.31;4860679;29;20624;-66
2021/10/08 10:20:57;;;;;;;47.05;24.40;;;;;;;14.65;66.94;103338.81;4872191;29;20036;-67
2021/10/08 10:23:24;;;;;;;47.42;25.23;;;;;;;14.67;67.76;103339.78;4871459;29;20131;-67
2021/10/08 10:25:50;;;;;;;45.65;24.98;;;;;;;14.50;67.36;103333.94;4875169;29;20043;-67
2021/10/08 10:28:16;;;;;;;54.97;26.77;;;;;;;14.24;68.38;103346.03;4840728;29;20040;-65
2021/10/08 10:30:44;;;;;;;48.25;25.98;;;;;;;14.49;68.20;103342.63;4862765;29;20543;-66
2021/10/08 10:33:09;;;;;;;51.55;26.95;;;;;;;14.49;67.79;103342.63;4853022;29;20693;-66
2021/10/08 10:35:46;;;;;;;54.40;27.48;;;;;;;14.56;68.30;103339.41;4891868;28;20047;-65
2021/10/08 10:38:37;;;;;;;54.83;28.08;;;;;;;14.63;68.80;103337.88;4888212;28;20052;-67
2021/10/08 10:41:08;;;;;;;52.72;27.48;;;;;;;14.78;69.32;103338.41;4887527;29;20361;-66
2021/10/08 10:43:40;;;;;;;48.20;26.02;;;;;;;14.78;68.01;103339.31;4872928;29;20069;-66
2021/10/08 10:47:08;;;;;;;51.47;27.30;;;;;;;14.97;67.75;103332.97;4870964;29;20048;-66
2021/10/08 10:52:03;;;;;;;49.03;26.77;;;;;;;15.05;67.82;103334.13;4850417;29;20099;-66
2021/10/08 10:54:38;;;;;;;50.35;27.30;;;;;;;15.15;67.31;103332.69;4877395;28;20039;-66
2021/10/08 10:57:07;;;;;;;54.17;29.08;;;;;;;15.02;67.45;103329.66;4893151;28;20061;-65
2021/10/08 10:59:34;;;;;;;52.38;28.85;;;;;;;15.14;67.67;103326.53;4883849;29;20129;-66
2021/10/08 11:04:35;;;;;;;55.47;28.65;;;;;;;15.02;67.79;103318.25;4875148;28;20044;-65
2021/10/08 11:07:15;;;;;;;50.33;27.50;;;;;;;15.17;67.83;103324.03;4883082;28;20471;-66
2021/10/08 11:09:41;;;;;;;55.38;28.10;;;;;;;15.06;68.03;103327.16;4887677;28;21030;-65
2021/10/08 11:12:34;;;;;;;52.33;29.30;;;;;;;15.03;68.25;103325.28;4883294;29;20044;-66
2021/10/08 11:15:17;;;;;;;52.40;28.85;;;;;;;15.01;67.65;103324.34;4885300;28;20055;-68
2021/10/08 11:17:53;;;;;;;54.85;28.60;;;;;;;15.02;68.70;103327.03;4882142;28;20060;-66